Portada
METAR-TAF:

METAR-TAF

Aeropuertos :

Aeropuerto Internacional Malvinas Argentinas

Ushuaia, Argentina

latitud: 54-48S, longitud: 068-19W, altitud: 16 m

Observación

El informe se hizo hace 36 minutos, a las 12:00 UTC
Viento 4 kt del norte
Temperatura -2°C
Humedad 86%
Presión 1033 hPa
Visibilidad 10 km o más
sin nubes por debajo de 1500 m y sin presencia de cumulonimbus.

METAR: SAWH 181200Z 36004KT CAVOK M02/M04 Q1033

Hora: 09:36 (12:36 UTC)

Pronóstico

El informe se hizo hace 1 hora y 36 minutos, a las 11:00 UTC
Pronóstico válido del 18 a las 12 UTC al 19 a las 12 UTC
Viento 10 kt del noroeste
Visibilidad 10 km o más
Nubes dispersas a una altura de 3000 ft
Cielo nuboso a una altura de 4500 ft

TAF: SAWH 181100Z 1812/1912 VRB03KT CAVOK TX01/1718Z TNM03/1810Z 32010KT 9999 SCT030 BKN045

Observaciones y pronósticos meteorológicos de más de 4000 aeropuertos (mensajes METAR y TAF).

Los puntos amarillos y rojos representan las estaciones disponibles.

Ponga el ratón en el punto deseado para ver el nombre de la estación.

Haga clic para ver las observaciones y los pronósticos meteorológicos.

Para cambiar el mapa : haga clic en los botones verdes con una cruz de color negro para hacer un zoom, en el botón verde con un guión para alejar o en las flechas verdes para mapas adyacentes.


METAR-TAF: